createdAt,value
2022-11-30T00:00:12.580Z,27
2022-11-30T00:01:12.543Z,28.70
2022-11-30T00:02:12.031Z,29.39
2022-11-30T00:03:12.048Z,27.70
2022-11-30T00:04:11.623Z,27.20
2022-11-30T00:05:12.090Z,29.10
2022-11-30T00:06:12.291Z,28.20
2022-11-30T00:07:11.517Z,26.39
2022-11-30T00:08:11.938Z,26.89
2022-11-30T00:09:11.407Z,30.29
2022-11-30T00:10:11.327Z,29.60
2022-11-30T00:11:11.555Z,26.89
2022-11-30T00:12:12.568Z,29.29
2022-11-30T00:13:11.924Z,30.89
2022-11-30T00:14:12.101Z,27.39
2022-11-30T00:15:12.372Z,27.89
2022-11-30T00:16:11.603Z,29.70
2022-11-30T00:17:12.201Z,30.29
2022-11-30T00:18:11.513Z,30.70
2022-11-30T00:19:11.567Z,34.79
2022-11-30T00:20:12.015Z,32.29
2022-11-30T00:21:11.521Z,34.20
2022-11-30T00:22:12.020Z,32.70
2022-11-30T00:23:12.280Z,31.79
2022-11-30T00:24:11.464Z,30.20
2022-11-30T00:25:11.972Z,33
2022-11-30T00:26:12.088Z,32.29
2022-11-30T00:27:12.410Z,30.89
2022-11-30T00:28:11.677Z,29.5
2022-11-30T00:29:12.267Z,34.5
2022-11-30T00:30:11.500Z,34.70
2022-11-30T00:31:11.892Z,33
2022-11-30T00:32:12.498Z,34.09
2022-11-30T00:33:11.777Z,36.29
2022-11-30T00:34:12.082Z,38.90
2022-11-30T00:35:11.295Z,36.5
2022-11-30T00:36:11.684Z,37.29
2022-11-30T00:37:12.049Z,35.29
2022-11-30T00:38:12.663Z,31.60
2022-11-30T00:39:12.737Z,35.79
2022-11-30T00:40:12.495Z,34.09
2022-11-30T00:41:12.418Z,35.20
2022-11-30T00:42:11.961Z,37.29
2022-11-30T00:43:12.148Z,31.70
2022-11-30T00:44:11.632Z,36.90
2022-11-30T00:45:12.397Z,34.29
2022-11-30T00:46:11.992Z,34.70
2022-11-30T00:47:11.889Z,35.70
2022-11-30T00:48:11.839Z,39.40
2022-11-30T00:49:12.032Z,37.70
2022-11-30T00:50:11.699Z,34.59
2022-11-30T00:51:17.457Z,39.40
2022-11-30T00:52:11.638Z,42.09
2022-11-30T00:53:12.272Z,37.70
2022-11-30T00:54:11.699Z,38.70
2022-11-30T00:55:17.717Z,36.70
2022-11-30T00:56:12.089Z,37.20
2022-11-30T00:57:11.632Z,33
2022-11-30T00:58:12.528Z,40.09
2022-11-30T00:59:12.217Z,42.29
2022-11-30T01:00:12.467Z,38.79
2022-11-30T01:01:13.859Z,37
2022-11-30T01:02:11.670Z,39.40
2022-11-30T01:03:12.518Z,42
2022-11-30T01:04:11.968Z,44.70
2022-11-30T01:05:11.544Z,44.09
2022-11-30T01:06:12.006Z,42.90
2022-11-30T01:07:11.687Z,44
2022-11-30T01:08:12.274Z,42.79
2022-11-30T01:09:26.018Z,43.09
2022-11-30T01:10:12.614Z,44.70
2022-11-30T01:11:12.296Z,42.29
2022-11-30T01:13:12.422Z,44
2022-11-30T01:14:12.231Z,40.90
2022-11-30T01:15:12.455Z,43.70
2022-11-30T01:16:12.053Z,38.90
2022-11-30T01:17:12.195Z,43
2022-11-30T01:18:11.640Z,39.09
2022-11-30T01:19:12.018Z,41
2022-11-30T01:20:12.414Z,39.70
2022-11-30T01:21:12.267Z,40.5
2022-11-30T01:22:12.033Z,41.09
2022-11-30T01:23:11.558Z,42.90
2022-11-30T01:24:12.177Z,40.20
2022-11-30T01:25:11.768Z,42.70
2022-11-30T01:26:12.320Z,45.79
2022-11-30T01:27:12.161Z,43.29
2022-11-30T01:28:11.951Z,40.40
2022-11-30T01:29:12.212Z,39.79
2022-11-30T01:30:11.724Z,40.20
2022-11-30T01:31:12.518Z,36.70
2022-11-30T01:32:12.137Z,44
2022-11-30T01:33:11.806Z,43.79
2022-11-30T01:34:12.316Z,40.70
2022-11-30T01:35:11.714Z,42.5
2022-11-30T01:36:12.085Z,42.20
2022-11-30T01:37:11.351Z,45.40
2022-11-30T01:38:11.542Z,41.90
2022-11-30T01:39:11.891Z,40.79
2022-11-30T01:40:12.379Z,43.40
2022-11-30T01:41:11.962Z,43.29
2022-11-30T01:42:12.492Z,38.79
2022-11-30T01:43:11.993Z,40.20
2022-11-30T01:44:15.511Z,42.40
2022-11-30T01:45:12.357Z,40.90
2022-11-30T01:46:11.940Z,38.79
2022-11-30T01:47:11.697Z,41.20
2022-11-30T01:48:11.985Z,41.59
2022-11-30T01:49:11.437Z,44
2022-11-30T01:50:11.826Z,43.29
2022-11-30T01:51:11.898Z,43.79
2022-11-30T01:52:12.240Z,40.09
2022-11-30T01:53:11.613Z,45.70
2022-11-30T01:54:11.956Z,45.5
2022-11-30T01:55:11.527Z,43.90
2022-11-30T01:56:12.071Z,42.59
2022-11-30T01:57:12.305Z,42.70
2022-11-30T01:58:11.545Z,40.70
2022-11-30T01:59:12.008Z,39.59
2022-11-30T02:00:12.621Z,41.79
2022-11-30T02:01:12.295Z,40
2022-11-30T02:02:11.698Z,39.20
2022-11-30T02:03:11.361Z,39.40
2022-11-30T02:05:12.520Z,38.09
2022-11-30T02:06:11.823Z,36.09
2022-11-30T02:07:11.950Z,39.90
2022-11-30T02:08:11.595Z,37
2022-11-30T02:09:11.814Z,40.59
2022-11-30T02:10:12.499Z,38.29
2022-11-30T02:11:11.638Z,39.09
2022-11-30T02:12:12.351Z,38.90
2022-11-30T02:13:11.633Z,42.5
2022-11-30T02:14:11.904Z,37.90
2022-11-30T02:15:12.314Z,37.70
2022-11-30T02:16:11.843Z,42.09
2022-11-30T02:17:11.641Z,45.90
2022-11-30T02:18:12.085Z,43.79
2022-11-30T02:19:11.666Z,42.79
2022-11-30T02:20:12.226Z,45.20
2022-11-30T02:21:11.660Z,45.79
2022-11-30T02:22:11.904Z,44.29
2022-11-30T02:23:12.275Z,41.79
2022-11-30T02:24:12.214Z,45
2022-11-30T02:25:12.123Z,39.20
2022-11-30T02:26:11.420Z,39.79
2022-11-30T02:27:12.030Z,38.90
2022-11-30T02:28:11.741Z,39.90
2022-11-30T02:29:12.211Z,37.20
2022-11-30T02:30:11.471Z,43.70
2022-11-30T02:31:11.826Z,40.5
2022-11-30T02:32:11.298Z,42.90
2022-11-30T02:33:11.873Z,41
2022-11-30T02:34:12.491Z,45
2022-11-30T02:35:12.104Z,46.90
2022-11-30T02:36:12.027Z,44.70
2022-11-30T02:37:12.361Z,44.79
2022-11-30T02:38:11.858Z,44
2022-11-30T02:39:12.360Z,44.5
2022-11-30T02:40:11.788Z,41
2022-11-30T02:41:12.410Z,41.5
2022-11-30T02:42:11.846Z,42
2022-11-30T02:43:12.457Z,43.90
2022-11-30T02:44:11.974Z,46.59
2022-11-30T02:45:11.652Z,39.59
2022-11-30T02:46:12.321Z,45.09
2022-11-30T02:47:11.843Z,36.5
2022-11-30T02:48:12.131Z,39.20
2022-11-30T02:49:11.574Z,39.09
2022-11-30T02:50:12.163Z,40.90
2022-11-30T02:51:11.598Z,38.79
2022-11-30T02:52:12.130Z,39.40
2022-11-30T02:53:12.385Z,41
2022-11-30T02:54:11.719Z,41.59
2022-11-30T02:55:12.166Z,36.90
2022-11-30T02:56:11.768Z,41.40
2022-11-30T02:57:12.383Z,37.20
2022-11-30T02:58:11.725Z,40
2022-11-30T02:59:12.030Z,40.09
2022-11-30T03:00:12.666Z,40.70
2022-11-30T03:01:12.271Z,40.90
2022-11-30T03:02:11.582Z,40
2022-11-30T03:03:11.926Z,41.5
2022-11-30T03:04:11.202Z,44.90
2022-11-30T03:05:11.715Z,40.70
2022-11-30T03:06:11.926Z,41.59
2022-11-30T03:07:12.507Z,37.5
2022-11-30T03:08:12.088Z,40.59
2022-11-30T03:09:11.693Z,40.40
2022-11-30T03:10:12.629Z,43.59
2022-11-30T03:11:12.017Z,40.20
2022-11-30T03:12:16.592Z,38.70
2022-11-30T03:13:12.018Z,41.59
2022-11-30T03:14:11.233Z,37
2022-11-30T03:15:12.549Z,40
2022-11-30T03:16:16.829Z,37.70
2022-11-30T03:17:12.179Z,41.40
2022-11-30T03:18:11.661Z,38
2022-11-30T03:20:11.645Z,38.70
2022-11-30T03:21:12.372Z,39.09
2022-11-30T03:22:11.728Z,38.5
2022-11-30T03:23:11.913Z,38.79
2022-11-30T03:24:12.293Z,42.29
2022-11-30T03:25:12.044Z,41
2022-11-30T03:26:11.425Z,36.29
2022-11-30T03:27:12.045Z,36.79
2022-11-30T03:28:11.661Z,39.20
2022-11-30T03:29:12.527Z,36.40
2022-11-30T03:30:12.386Z,34.59
2022-11-30T03:31:12.707Z,38.29
2022-11-30T03:32:26.079Z,35.59
2022-11-30T03:33:11.857Z,44.20
2022-11-30T03:34:11.708Z,39.20
2022-11-30T03:35:12.542Z,44.70
2022-11-30T03:36:11.992Z,37.40
2022-11-30T03:38:11.840Z,37.79
2022-11-30T03:39:12.293Z,36.09
2022-11-30T03:40:11.999Z,38.29
2022-11-30T03:41:11.435Z,39.70
2022-11-30T03:43:11.384Z,42.90
2022-11-30T03:44:11.799Z,41.70
2022-11-30T03:45:12.733Z,46.90
2022-11-30T03:46:30.901Z,37
2022-11-30T03:47:12.553Z,40.79
2022-11-30T03:48:12.172Z,41.79
2022-11-30T03:49:11.417Z,42.09
2022-11-30T03:50:11.937Z,35.70
2022-11-30T03:51:12.418Z,38.09
2022-11-30T03:52:11.711Z,40.79
2022-11-30T03:53:12.275Z,38.59
2022-11-30T03:54:11.523Z,39.5
2022-11-30T03:55:11.819Z,40.40
2022-11-30T03:56:11.993Z,36.09
2022-11-30T03:57:12.220Z,38.90
2022-11-30T03:58:11.404Z,36.29
2022-11-30T03:59:11.520Z,41.40
2022-11-30T04:00:12.384Z,38.90
2022-11-30T04:01:11.815Z,40.20
2022-11-30T04:02:12.329Z,38.5
2022-11-30T04:03:11.927Z,37.70
2022-11-30T04:04:12.245Z,37.90
2022-11-30T04:05:11.761Z,36.79
2022-11-30T04:06:11.986Z,40.59
2022-11-30T04:07:12.258Z,36.20
2022-11-30T04:08:11.531Z,35.09
2022-11-30T04:09:12.103Z,33.5
2022-11-30T04:10:11.828Z,34.5
2022-11-30T04:11:12.319Z,35.90
2022-11-30T04:12:11.898Z,33.29
2022-11-30T04:13:12.559Z,32.40
2022-11-30T04:14:11.963Z,31.5
2022-11-30T04:15:12.403Z,32.59
2022-11-30T04:16:11.843Z,31
2022-11-30T04:17:12.271Z,34.09
2022-11-30T04:18:11.925Z,32.59
2022-11-30T04:19:12.304Z,33.09
2022-11-30T04:20:12.003Z,32.59
2022-11-30T04:21:12.596Z,33.5
2022-11-30T04:22:11.771Z,34.29
2022-11-30T04:23:12.180Z,31.89
2022-11-30T04:24:12.339Z,34.5
2022-11-30T04:25:12.137Z,33.70
2022-11-30T04:26:11.404Z,32.20
2022-11-30T04:27:11.959Z,35.20
2022-11-30T04:28:11.536Z,35.79
2022-11-30T04:29:12.111Z,34.29
2022-11-30T04:30:11.731Z,35.09
2022-11-30T04:31:12.470Z,34.5
2022-11-30T04:32:12.027Z,34.79
2022-11-30T04:33:11.536Z,32.29
2022-11-30T04:34:12.155Z,35.70
2022-11-30T04:35:11.691Z,37.70
2022-11-30T04:36:12.322Z,37.79
2022-11-30T04:37:12.322Z,35.90
2022-11-30T04:38:12.107Z,37.29
2022-11-30T04:39:11.870Z,34.40
2022-11-30T04:40:11.912Z,36.29
2022-11-30T04:41:12.379Z,36.90
2022-11-30T04:42:11.854Z,34.90
2022-11-30T04:43:11.617Z,32.40
2022-11-30T04:44:12.140Z,33
2022-11-30T04:45:12.539Z,35
2022-11-30T04:46:12.308Z,34.79
2022-11-30T04:47:12.468Z,36.5
2022-11-30T04:48:12.101Z,34.5
2022-11-30T04:50:11.994Z,35.70
2022-11-30T04:51:11.467Z,36.09
2022-11-30T04:52:12.305Z,35.90
2022-11-30T04:53:11.799Z,41
2022-11-30T04:54:12.282Z,34.90
2022-11-30T04:55:11.815Z,36.40
2022-11-30T04:56:12.495Z,39.40
2022-11-30T04:57:12.313Z,36
2022-11-30T04:58:11.858Z,36.90
2022-11-30T04:59:12.194Z,41.90
2022-11-30T05:00:12.019Z,34
2022-11-30T05:01:11.731Z,37.20
2022-11-30T05:02:12.578Z,35.29
2022-11-30T05:03:11.943Z,37.29
2022-11-30T05:04:12.255Z,37.70
2022-11-30T05:05:11.825Z,38.70
2022-11-30T05:06:12.400Z,37
2022-11-30T05:07:12.086Z,38.09
2022-11-30T05:08:12.016Z,36
2022-11-30T05:09:11.553Z,35.90
2022-11-30T05:10:12.672Z,37.59
2022-11-30T05:11:12.031Z,34.70
2022-11-30T05:12:11.538Z,38.29
2022-11-30T05:13:11.879Z,41.5
2022-11-30T05:14:12.271Z,39.20
2022-11-30T05:15:11.833Z,40.59
2022-11-30T05:16:12.057Z,41.20
2022-11-30T05:17:11.831Z,38.5
2022-11-30T05:18:12.228Z,37
2022-11-30T05:19:11.794Z,38.40
2022-11-30T05:20:12.733Z,40
2022-11-30T05:21:12.285Z,38.29
2022-11-30T05:23:11.439Z,38.40
2022-11-30T05:24:11.943Z,39
2022-11-30T05:25:11.633Z,38.70
2022-11-30T05:26:12.027Z,38.90
2022-11-30T05:27:16.503Z,37.59
2022-11-30T05:28:12.059Z,40.5
2022-11-30T05:29:11.523Z,38.59
2022-11-30T05:30:12.395Z,37.70
2022-11-30T05:31:12.115Z,38.09
2022-11-30T05:32:11.429Z,36.5
2022-11-30T05:33:12.229Z,36.20
2022-11-30T05:34:11.544Z,35.59
2022-11-30T05:35:12.172Z,33.20
2022-11-30T05:36:11.881Z,37.29
2022-11-30T05:37:11.964Z,35.29
2022-11-30T05:38:12.294Z,36.90
2022-11-30T05:39:12.598Z,35.79
2022-11-30T05:40:12.059Z,34.79
2022-11-30T05:42:12.392Z,35.59
2022-11-30T05:43:17.807Z,35.09
2022-11-30T05:44:12.458Z,39
2022-11-30T05:45:17.706Z,34.40
2022-11-30T05:46:12.195Z,39.90
2022-11-30T05:47:12.267Z,38.90
2022-11-30T05:48:12.155Z,36.40
2022-11-30T05:49:17.444Z,35.20
2022-11-30T05:50:12.122Z,38.40
2022-11-30T05:51:12.247Z,35.40
2022-11-30T05:52:12.565Z,38.09
2022-11-30T05:53:20.381Z,37
2022-11-30T05:54:12.129Z,36.90
2022-11-30T05:55:12.220Z,37.59
2022-11-30T05:56:12.521Z,36
2022-11-30T05:57:12.575Z,34.90
2022-11-30T05:58:12.229Z,41.09
2022-11-30T05:59:12.016Z,40.90
2022-11-30T06:00:12.665Z,36.40
2022-11-30T06:01:12.346Z,38.29
2022-11-30T06:02:12.598Z,35.09
2022-11-30T06:03:12.718Z,38.59
2022-11-30T06:04:12.093Z,41.09
2022-11-30T06:05:26.129Z,39.29
2022-11-30T06:06:12.197Z,37.29
2022-11-30T06:07:12.488Z,41.29
2022-11-30T06:08:11.913Z,37.5
2022-11-30T06:09:25.979Z,37
2022-11-30T06:10:12.098Z,39.29
2022-11-30T06:11:31.127Z,42.5
2022-11-30T06:12:11.847Z,41.40
2022-11-30T06:13:11.888Z,36.90
2022-11-30T06:14:12.580Z,42.20
2022-11-30T06:15:12.665Z,37
2022-11-30T06:16:12.792Z,46.29
2022-11-30T06:17:12.074Z,40.70
2022-11-30T06:18:11.932Z,40
2022-11-30T06:19:12.085Z,42.59
2022-11-30T06:20:12.163Z,40.79
2022-11-30T06:21:12.484Z,42.70
2022-11-30T06:22:12.877Z,38.70
2022-11-30T06:23:11.998Z,40.70
2022-11-30T06:24:12.244Z,43.5
2022-11-30T06:25:12.445Z,38.40
2022-11-30T06:26:12.489Z,37.59
2022-11-30T06:27:12.632Z,38.79
2022-11-30T06:28:12.089Z,40.59
2022-11-30T06:29:12.016Z,37.70
2022-11-30T06:30:12.331Z,38.29
2022-11-30T06:31:12.357Z,41
2022-11-30T06:32:12.463Z,38.79
2022-11-30T06:33:12.179Z,44.20
2022-11-30T06:34:12.380Z,40.79
2022-11-30T06:35:12.892Z,39.90
2022-11-30T06:36:12.386Z,41.40
2022-11-30T06:37:13.221Z,39.29
2022-11-30T06:38:12.532Z,41.09
2022-11-30T06:39:12.449Z,40.70
2022-11-30T06:40:12.563Z,45.09
2022-11-30T06:41:12.748Z,41.5
2022-11-30T06:42:11.653Z,42.20
2022-11-30T06:43:13.000Z,42
2022-11-30T06:45:13.168Z,43.09
2022-11-30T06:46:12.312Z,42.40
2022-11-30T06:47:12.541Z,43.40
2022-11-30T06:48:11.986Z,41.29
2022-11-30T06:49:12.106Z,46
2022-11-30T06:50:12.034Z,42.79
2022-11-30T06:51:12.010Z,45.79
2022-11-30T06:52:11.574Z,40.59
2022-11-30T06:53:12.559Z,46.70
2022-11-30T06:54:12.541Z,42.29
2022-11-30T06:55:12.069Z,48.59
2022-11-30T06:56:12.188Z,43.70
2022-11-30T06:57:12.415Z,47.5
2022-11-30T06:58:12.425Z,45.90
2022-11-30T06:59:12.325Z,54.09
2022-11-30T07:00:12.997Z,47.70
2022-11-30T07:01:12.335Z,51.59
2022-11-30T07:02:17.462Z,47.90
2022-11-30T07:03:12.245Z,49.29
2022-11-30T07:04:13.058Z,50.70
2022-11-30T07:05:12.598Z,47.09
2022-11-30T07:06:11.895Z,46.79
2022-11-30T07:07:12.221Z,43.09
2022-11-30T07:08:12.613Z,44.29
2022-11-30T07:09:12.075Z,43.79
2022-11-30T07:10:14.768Z,41.59
2022-11-30T07:11:12.201Z,41
2022-11-30T07:12:12.653Z,39.59
2022-11-30T07:13:12.153Z,38.70
2022-11-30T07:14:11.859Z,39
2022-11-30T07:15:12.949Z,38.90
2022-11-30T07:16:12.111Z,37.70
2022-11-30T07:17:12.520Z,38.29
2022-11-30T07:18:12.967Z,37.5
2022-11-30T07:19:12.259Z,37.09
2022-11-30T07:20:13.056Z,38.5
2022-11-30T07:21:12.357Z,38.90
2022-11-30T07:22:12.761Z,36.70
2022-11-30T07:23:12.397Z,36.59
2022-11-30T07:24:12.469Z,37.59
2022-11-30T07:25:13.011Z,38.70
2022-11-30T07:26:12.055Z,37.29
2022-11-30T07:27:12.477Z,38.70
2022-11-30T07:28:11.964Z,36.29
2022-11-30T07:29:12.262Z,39.5
2022-11-30T07:30:12.821Z,43.20
2022-11-30T07:31:16.160Z,41.40
2022-11-30T07:32:12.776Z,41.09
2022-11-30T07:33:12.193Z,40.79
2022-11-30T07:34:12.407Z,43.59
2022-11-30T07:35:13.403Z,49
2022-11-30T07:36:11.938Z,45.79
2022-11-30T07:37:12.772Z,45.70
2022-11-30T07:38:12.203Z,44.20
2022-11-30T07:39:12.987Z,42.5
2022-11-30T07:40:12.609Z,45.70
2022-11-30T07:41:11.921Z,42.90
2022-11-30T07:42:12.302Z,45.5
2022-11-30T07:43:12.429Z,41.09
2022-11-30T07:44:12.235Z,41.70
2022-11-30T07:45:12.684Z,41.40
2022-11-30T07:46:13.007Z,39.20
2022-11-30T07:47:12.403Z,42.79
2022-11-30T07:48:12.468Z,40.09
2022-11-30T07:49:12.710Z,38.79
2022-11-30T07:50:12.906Z,42.09
2022-11-30T07:51:12.198Z,39.40
2022-11-30T07:52:12.245Z,38.29
2022-11-30T07:53:12.279Z,37.79
2022-11-30T07:54:12.663Z,36.20
2022-11-30T07:56:12.498Z,40.70
2022-11-30T07:57:12.984Z,37.59
2022-11-30T07:58:17.158Z,38.20
2022-11-30T07:59:12.776Z,35.70
2022-11-30T08:00:12.774Z,38.09
2022-11-30T08:01:12.952Z,35.90
2022-11-30T08:02:12.686Z,35.09
2022-11-30T08:03:12.330Z,35.40
2022-11-30T08:04:18.128Z,35.90
2022-11-30T08:05:12.662Z,34
2022-11-30T08:06:12.304Z,34.79
2022-11-30T08:07:13.075Z,37.20
2022-11-30T08:08:12.267Z,36.70
2022-11-30T08:09:15.333Z,35
2022-11-30T08:10:17.979Z,34.90
2022-11-30T08:11:12.319Z,36
2022-11-30T08:12:13.028Z,37.29
2022-11-30T08:13:12.718Z,37
2022-11-30T08:14:12.419Z,34.79
2022-11-30T08:15:21.266Z,35.79
2022-11-30T08:16:12.819Z,36
2022-11-30T08:17:12.918Z,34.59
2022-11-30T08:18:20.291Z,39.5
2022-11-30T08:19:12.971Z,36.09
2022-11-30T08:20:12.837Z,37.29
2022-11-30T08:21:12.133Z,38
2022-11-30T08:22:26.721Z,40.09
2022-11-30T08:23:12.991Z,40.59
2022-11-30T08:24:12.284Z,40
2022-11-30T08:25:12.749Z,41.29
2022-11-30T08:26:26.801Z,37.20
2022-11-30T08:27:12.699Z,42.40
2022-11-30T08:28:12.828Z,40.40
2022-11-30T08:29:12.164Z,39.20
2022-11-30T08:30:29.310Z,42
2022-11-30T08:31:12.683Z,41
2022-11-30T08:32:13.214Z,42.29
2022-11-30T08:33:12.893Z,43.70
2022-11-30T08:34:12.399Z,43.90
2022-11-30T08:35:13.067Z,41.70
2022-11-30T08:36:12.793Z,40.59
2022-11-30T08:37:12.429Z,43.29
2022-11-30T08:38:13.174Z,39.09
2022-11-30T08:39:12.857Z,44
2022-11-30T08:40:12.229Z,40.90
2022-11-30T08:41:13.396Z,41.40
2022-11-30T08:42:12.909Z,40.70
2022-11-30T08:43:12.455Z,39.70
2022-11-30T08:44:32.144Z,39.59
2022-11-30T08:45:12.998Z,36.20
2022-11-30T08:46:42.636Z,38.70
2022-11-30T08:47:12.755Z,41.79
2022-11-30T08:48:12.369Z,41.09
2022-11-30T08:49:21.516Z,37.40
2022-11-30T08:50:13.279Z,41.90
2022-11-30T08:51:12.794Z,41.20
2022-11-30T08:52:17.420Z,37.79
2022-11-30T08:53:12.891Z,40.20
2022-11-30T08:54:12.433Z,36.29
2022-11-30T08:55:12.453Z,36.5
2022-11-30T08:57:12.768Z,39.29
2022-11-30T08:58:11.852Z,36.90
2022-11-30T08:59:11.931Z,38.5
2022-11-30T09:00:13.556Z,37.20
2022-11-30T09:01:12.485Z,36.79
2022-11-30T09:02:12.489Z,37.90
2022-11-30T09:03:12.791Z,35.70
2022-11-30T09:04:12.289Z,39.5
2022-11-30T09:05:13.337Z,40
2022-11-30T09:06:12.851Z,37.79
2022-11-30T09:07:11.933Z,35.70
2022-11-30T09:08:12.420Z,38.59
2022-11-30T09:09:12.983Z,35.40
2022-11-30T09:10:12.826Z,37.29
2022-11-30T09:11:12.567Z,34
2022-11-30T09:12:12.845Z,34.5
2022-11-30T09:13:12.433Z,34.29
2022-11-30T09:15:12.370Z,33.09
2022-11-30T09:16:12.923Z,33
2022-11-30T09:17:12.521Z,32.5
2022-11-30T09:18:12.363Z,32.29
2022-11-30T09:19:12.833Z,31.39
2022-11-30T09:20:12.628Z,32
2022-11-30T09:21:12.615Z,32.20
2022-11-30T09:22:12.935Z,29.20
2022-11-30T09:23:12.651Z,30.70
2022-11-30T09:24:12.010Z,31.89
2022-11-30T09:25:13.225Z,31
2022-11-30T09:27:13.203Z,31.20
2022-11-30T09:28:12.826Z,31.39
2022-11-30T09:29:12.741Z,31.10
2022-11-30T09:30:12.695Z,33.29
2022-11-30T09:31:13.412Z,31.29
2022-11-30T09:32:12.908Z,30.29
2022-11-30T09:33:13.091Z,32.59
2022-11-30T09:34:13.062Z,31.60
2022-11-30T09:35:13.359Z,33
2022-11-30T09:36:12.383Z,33.20
2022-11-30T09:37:13.202Z,32.09
2022-11-30T09:38:13.148Z,33.59
2022-11-30T09:39:13.533Z,32.29
2022-11-30T09:40:12.692Z,29.89
2022-11-30T09:41:13.214Z,31.20
2022-11-30T09:42:13.686Z,29.89
2022-11-30T09:43:13.037Z,31.60
2022-11-30T09:44:13.210Z,32.20
2022-11-30T09:45:13.250Z,34.90
2022-11-30T09:46:12.827Z,32.5
2022-11-30T09:47:12.081Z,31.89
2022-11-30T09:48:12.770Z,31.29
2022-11-30T09:49:12.527Z,32.70
2022-11-30T09:50:13.336Z,33.79
2022-11-30T09:51:13.248Z,31.5
2022-11-30T09:52:12.564Z,30.5
2022-11-30T09:53:13.147Z,30.79
2022-11-30T09:54:12.461Z,33.90
2022-11-30T09:55:13.506Z,29.29
2022-11-30T09:56:12.480Z,30.5
2022-11-30T09:57:12.888Z,31.5
2022-11-30T09:58:12.808Z,32.5
2022-11-30T09:59:12.453Z,32.59
2022-11-30T10:00:13.537Z,32.09
2022-11-30T10:01:13.187Z,32
2022-11-30T10:02:13.255Z,30.39
2022-11-30T10:03:12.226Z,30.10
2022-11-30T10:04:13.139Z,33
2022-11-30T10:06:12.808Z,31.70
2022-11-30T10:07:12.881Z,29.89
2022-11-30T10:08:12.318Z,32.29
2022-11-30T10:09:13.242Z,30.89
2022-11-30T10:10:31.798Z,30.5
2022-11-30T10:11:12.229Z,30.60
2022-11-30T10:13:12.294Z,30.29
2022-11-30T10:14:12.999Z,29.39
2022-11-30T10:15:13.239Z,32.70
2022-11-30T10:16:13.168Z,30.20
2022-11-30T10:17:13.555Z,31.5
2022-11-30T10:18:12.468Z,28.89
2022-11-30T10:19:12.870Z,31.39
2022-11-30T10:20:13.533Z,31.70
2022-11-30T10:21:12.300Z,32.09
2022-11-30T10:22:13.213Z,30.79
2022-11-30T10:23:13.034Z,30.10
2022-11-30T10:24:12.837Z,27.89
2022-11-30T10:25:12.723Z,33.09
2022-11-30T10:26:12.621Z,33
2022-11-30T10:27:17.198Z,31.60
2022-11-30T10:28:38.669Z,30.39
2022-11-30T10:29:17.517Z,29.60
2022-11-30T10:30:13.058Z,31.10
2022-11-30T10:31:18.314Z,28.20
2022-11-30T10:32:13.495Z,31.5
2022-11-30T10:33:13.392Z,29.60
2022-11-30T10:34:12.857Z,28.79
2022-11-30T10:35:17.661Z,32
2022-11-30T10:36:12.976Z,31.39
2022-11-30T10:37:16.955Z,29.20
2022-11-30T10:38:12.928Z,28.89
2022-11-30T10:39:17.816Z,30.39
2022-11-30T10:40:13.354Z,30.60
2022-11-30T10:41:21.057Z,29.89
2022-11-30T10:42:12.636Z,28.60
2022-11-30T10:43:12.253Z,30.89
2022-11-30T10:44:13.431Z,30.29
2022-11-30T10:45:13.003Z,30.39
2022-11-30T10:46:17.047Z,29.5
2022-11-30T10:48:12.605Z,29.39
2022-11-30T10:49:12.552Z,31.70
2022-11-30T10:50:12.829Z,30
2022-11-30T10:51:26.969Z,28.10
2022-11-30T10:52:12.917Z,29
2022-11-30T10:53:27.294Z,27.10
2022-11-30T10:54:12.950Z,28.79
2022-11-30T10:55:13.293Z,29.29
2022-11-30T10:56:13.472Z,27.89
2022-11-30T10:57:27.085Z,29.39
2022-11-30T10:58:12.682Z,28.10
2022-11-30T10:59:12.567Z,27.60
2022-11-30T11:00:13.137Z,27.39
2022-11-30T11:01:27.089Z,30.39
2022-11-30T11:02:13.454Z,29
2022-11-30T11:03:12.448Z,26.60
2022-11-30T11:04:13.493Z,26.70
2022-11-30T11:05:13.012Z,28.79
2022-11-30T11:06:12.522Z,29.60
2022-11-30T11:07:12.945Z,30.20
2022-11-30T11:08:13.233Z,28.5
2022-11-30T11:09:13.142Z,29.70
2022-11-30T11:10:12.361Z,28.20
2022-11-30T11:11:13.066Z,30.29
2022-11-30T11:12:13.450Z,29.60
2022-11-30T11:13:31.440Z,29.5
2022-11-30T11:14:13.143Z,27.89
2022-11-30T11:15:13.586Z,26.89
2022-11-30T11:16:12.612Z,28.39
2022-11-30T11:17:34.501Z,28.79
2022-11-30T11:18:12.055Z,31
2022-11-30T11:19:12.851Z,30.70
2022-11-30T11:20:13.134Z,29.60
2022-11-30T11:21:35.357Z,28.60
2022-11-30T11:22:13.169Z,29.10
2022-11-30T11:23:13.478Z,29.5
2022-11-30T11:24:13.385Z,28.39
2022-11-30T11:25:13.548Z,26.70
2022-11-30T11:26:13.504Z,29.79
2022-11-30T11:28:12.526Z,29.10
2022-11-30T11:29:12.300Z,32.59
2022-11-30T11:30:14.026Z,30.29
2022-11-30T11:31:13.120Z,29
2022-11-30T11:32:13.535Z,33.29
2022-11-30T11:33:12.740Z,29.89
2022-11-30T11:34:13.032Z,28
2022-11-30T11:35:13.322Z,30.29
2022-11-30T11:36:13.255Z,28
2022-11-30T11:37:13.285Z,27.79
2022-11-30T11:38:12.357Z,32.20
2022-11-30T11:39:13.127Z,31.20
2022-11-30T11:40:13.955Z,30.79
2022-11-30T11:41:13.054Z,29.70
2022-11-30T11:42:16.560Z,31.89
2022-11-30T11:43:13.180Z,32.59
2022-11-30T11:44:13.094Z,28.70
2022-11-30T11:45:12.877Z,29.79
2022-11-30T11:46:12.476Z,30.39
2022-11-30T11:47:12.281Z,29.39
2022-11-30T11:48:13.360Z,29.60
2022-11-30T11:49:13.197Z,29.29
2022-11-30T11:50:12.719Z,30
2022-11-30T11:51:12.784Z,29.5
2022-11-30T11:52:12.937Z,30.29
2022-11-30T11:53:12.987Z,30.70
2022-11-30T11:54:13.260Z,30.29
2022-11-30T11:55:13.553Z,32.40
2022-11-30T11:56:12.676Z,29.60
2022-11-30T11:57:12.633Z,29.5
2022-11-30T12:00:16.406Z,31.20
2022-11-30T12:01:38.632Z,29
2022-11-30T12:02:12.840Z,31.29
2022-11-30T12:03:12.980Z,29.5
2022-11-30T12:04:13.222Z,30.79
2022-11-30T12:05:12.406Z,32.5
2022-11-30T12:06:12.589Z,31.29
2022-11-30T12:07:15.034Z,32.09
2022-11-30T12:08:12.729Z,31.29
2022-11-30T12:09:13.231Z,32.59
2022-11-30T12:10:49.553Z,32.29
2022-11-30T12:11:12.598Z,32.70
2022-11-30T12:12:12.829Z,33.70
2022-11-30T12:13:12.454Z,33.20
2022-11-30T12:14:13.821Z,32.70
2022-11-30T12:15:13.159Z,34
2022-11-30T12:16:13.488Z,34.40
2022-11-30T12:17:13.060Z,34.70
2022-11-30T12:18:17.213Z,33.5
2022-11-30T12:19:12.800Z,35.09
2022-11-30T12:20:13.075Z,35.29
2022-11-30T12:21:12.886Z,36.79
2022-11-30T12:22:13.103Z,35.90
2022-11-30T12:23:12.876Z,36.70
2022-11-30T12:24:12.728Z,34.40
2022-11-30T12:25:12.707Z,35
2022-11-30T12:26:12.184Z,33.70
2022-11-30T12:27:13.168Z,36.09
2022-11-30T12:28:12.775Z,34.40
2022-11-30T12:29:12.498Z,34.79
2022-11-30T12:30:13.642Z,35.90
2022-11-30T12:31:12.707Z,38.20
2022-11-30T12:32:12.412Z,33.5
2022-11-30T12:33:13.346Z,33.40
2022-11-30T12:34:13.338Z,33.79
2022-11-30T12:35:13.156Z,34.20
2022-11-30T12:36:12.650Z,35
2022-11-30T12:37:12.416Z,35.5
2022-11-30T12:38:13.058Z,33.79
2022-11-30T12:39:13.112Z,35.29
2022-11-30T12:40:13.683Z,34.20
2022-11-30T12:41:12.448Z,33
2022-11-30T12:42:13.045Z,34.20
2022-11-30T12:43:12.425Z,33.70
2022-11-30T12:44:13.126Z,31.5
2022-11-30T12:45:13.313Z,34.40
2022-11-30T12:46:12.945Z,33.59
2022-11-30T12:47:12.813Z,33.20
2022-11-30T12:48:12.721Z,33.90
2022-11-30T12:49:12.659Z,34.59
2022-11-30T12:50:12.546Z,33.20
2022-11-30T12:51:12.257Z,33.29
2022-11-30T12:52:12.680Z,33.70
2022-11-30T12:53:12.741Z,29.79
2022-11-30T12:54:17.608Z,30.89
2022-11-30T12:55:13.395Z,31.29
2022-11-30T12:56:17.856Z,33.20
2022-11-30T12:57:12.582Z,30.29
2022-11-30T12:58:17.292Z,29.29
2022-11-30T12:59:12.928Z,26.79
2022-11-30T13:00:18.342Z,30.5
2022-11-30T13:01:13.440Z,28.60
2022-11-30T13:02:13.292Z,32.09
2022-11-30T13:03:13.152Z,29.70
2022-11-30T13:04:17.676Z,28.79
2022-11-30T13:05:13.179Z,30.20
2022-11-30T13:06:12.922Z,29.10
2022-11-30T13:07:13.293Z,29.79
2022-11-30T13:08:12.556Z,28.39
2022-11-30T13:09:12.051Z,29.79
2022-11-30T13:10:12.975Z,30.20
2022-11-30T13:11:12.702Z,30.79
2022-11-30T13:12:20.651Z,30.60
2022-11-30T13:13:12.742Z,29.10
2022-11-30T13:14:27.061Z,30.20
2022-11-30T13:15:15.682Z,30.89
2022-11-30T13:16:26.707Z,31.10
2022-11-30T13:17:13.153Z,29.89
2022-11-30T13:18:27.152Z,29.20
2022-11-30T13:19:12.592Z,30.70
2022-11-30T13:20:26.561Z,33.40
2022-11-30T13:21:13.052Z,31.79